sensor_id;sensor_type;location;lat;lon;timestamp;pressure;altitude;pressure_sealevel;temperature;humidity
20115;BME280;10218;42.874;25.320;2023-04-28T00:00:19;97384.66;;;9.40;100.00
20115;BME280;10218;42.874;25.320;2023-04-28T00:02:47;97371.19;;;9.41;99.00
20115;BME280;10218;42.874;25.320;2023-04-28T00:05:14;97376.12;;;9.28;100.00
20115;BME280;10218;42.874;25.320;2023-04-28T00:07:42;97378.31;;;9.33;100.00
20115;BME280;10218;42.874;25.320;2023-04-28T00:10:09;97383.88;;;9.48;99.27
20115;BME280;10218;42.874;25.320;2023-04-28T00:12:37;97382.59;;;9.26;99.04
20115;BME280;10218;42.874;25.320;2023-04-28T00:15:04;97383.94;;;9.30;100.00
20115;BME280;10218;42.874;25.320;2023-04-28T00:17:31;97376.38;;;9.43;100.00
20115;BME280;10218;42.874;25.320;2023-04-28T00:19:58;97386.97;;;9.35;100.00
20115;BME280;10218;42.874;25.320;2023-04-28T00:22:25;97388.22;;;9.49;100.00
20115;BME280;10218;42.874;25.320;2023-04-28T00:24:52;97390.97;;;9.31;100.00
20115;BME280;10218;42.874;25.320;2023-04-28T00:27:19;97397.78;;;9.59;100.00
20115;BME280;10218;42.874;25.320;2023-04-28T00:29:46;97392.94;;;9.55;100.00
20115;BME280;10218;42.874;25.320;2023-04-28T00:32:14;97397.88;;;9.16;100.00
20115;BME280;10218;42.874;25.320;2023-04-28T00:34:41;97399.28;;;9.28;100.00
20115;BME280;10218;42.874;25.320;2023-04-28T00:37:08;97394.19;;;9.42;100.00
20115;BME280;10218;42.874;25.320;2023-04-28T00:39:36;97395.53;;;9.47;100.00
20115;BME280;10218;42.874;25.320;2023-04-28T00:42:03;97407.03;;;9.39;100.00
20115;BME280;10218;42.874;25.320;2023-04-28T00:44:30;97404.34;;;9.39;100.00
20115;BME280;10218;42.874;25.320;2023-04-28T00:46:58;97405.62;;;9.35;100.00
20115;BME280;10218;42.874;25.320;2023-04-28T00:49:25;97400.16;;;9.11;100.00
20115;BME280;10218;42.874;25.320;2023-04-28T00:51:52;97412.63;;;9.28;100.00
20115;BME280;10218;42.874;25.320;2023-04-28T00:54:19;97415.50;;;9.34;100.00
20115;BME280;10218;42.874;25.320;2023-04-28T00:56:47;97418.16;;;9.34;96.75
20115;BME280;10218;42.874;25.320;2023-04-28T00:59:14;97419.25;;;9.24;95.01
20115;BME280;10218;42.874;25.320;2023-04-28T01:01:42;97414.56;;;9.52;100.00
20115;BME280;10218;42.874;25.320;2023-04-28T01:04:10;97424.53;;;9.16;94.63
20115;BME280;10218;42.874;25.320;2023-04-28T01:06:37;97418.81;;;9.11;100.00
20115;BME280;10218;42.874;25.320;2023-04-28T01:09:06;97422.06;;;9.22;100.00
20115;BME280;10218;42.874;25.320;2023-04-28T01:11:33;97425.37;;;9.16;100.00
20115;BME280;10218;42.874;25.320;2023-04-28T01:14:00;97411.66;;;8.85;94.30
20115;BME280;10218;42.874;25.320;2023-04-28T01:16:28;97426.56;;;9.22;90.09
20115;BME280;10218;42.874;25.320;2023-04-28T01:18:57;97412.91;;;8.99;87.44
20115;BME280;10218;42.874;25.320;2023-04-28T01:21:29;97417.50;;;9.15;94.03
20115;BME280;10218;42.874;25.320;2023-04-28T01:23:59;97417.81;;;9.04;90.31
20115;BME280;10218;42.874;25.320;2023-04-28T01:26:26;97420.47;;;9.04;74.77
20115;BME280;10218;42.874;25.320;2023-04-28T01:28:53;97417.87;;;9.20;86.15
20115;BME280;10218;42.874;25.320;2023-04-28T01:31:21;97418.16;;;9.09;83.71
20115;BME280;10218;42.874;25.320;2023-04-28T01:33:48;97423.53;;;9.17;72.33
20115;BME280;10218;42.874;25.320;2023-04-28T01:36:15;97422.06;;;8.96;75.09
20115;BME280;10218;42.874;25.320;2023-04-28T01:38:43;97420.47;;;9.04;90.17
20115;BME280;10218;42.874;25.320;2023-04-28T01:41:11;97423.13;;;9.04;83.30
20115;BME280;10218;42.874;25.320;2023-04-28T01:43:38;97423.13;;;9.04;93.58
20115;BME280;10218;42.874;25.320;2023-04-28T01:46:06;97423.56;;;9.25;98.74
20115;BME280;10218;42.874;25.320;2023-04-28T01:48:32;97425.06;;;8.93;100.00
20115;BME280;10218;42.874;25.320;2023-04-28T01:51:00;97433.22;;;8.74;100.00
20115;BME280;10218;42.874;25.320;2023-04-28T01:53:27;97426.13;;;8.83;95.20
20115;BME280;10218;42.874;25.320;2023-04-28T01:55:54;97430.06;;;8.96;85.40
20115;BME280;10218;42.874;25.320;2023-04-28T01:58:21;97441.88;;;9.20;91.17
20115;BME280;10218;42.874;25.320;2023-04-28T02:00:49;97445.13;;;9.06;91.03
20115;BME280;10218;42.874;25.320;2023-04-28T02:03:19;97435.38;;;8.96;96.89
20115;BME280;10218;42.874;25.320;2023-04-28T02:05:46;97440.81;;;8.87;100.00
20115;BME280;10218;42.874;25.320;2023-04-28T02:08:13;97432.81;;;8.87;100.00
20115;BME280;10218;42.874;25.320;2023-04-28T02:10:41;97442.03;;;8.92;100.00
20115;BME280;10218;42.874;25.320;2023-04-28T02:13:08;97438.91;;;8.79;100.00
20115;BME280;10218;42.874;25.320;2023-04-28T02:15:41;97436.34;;;8.87;100.00
20115;BME280;10218;42.874;25.320;2023-04-28T02:18:09;97433.94;;;9.02;100.00
20115;BME280;10218;42.874;25.320;2023-04-28T02:20:38;97437.56;;;8.75;100.00
20115;BME280;10218;42.874;25.320;2023-04-28T02:23:06;97444.03;;;8.73;100.00
20115;BME280;10218;42.874;25.320;2023-04-28T02:25:33;97443.66;;;8.50;100.00
20115;BME280;10218;42.874;25.320;2023-04-28T02:28:02;97447.44;;;8.83;100.00
20115;BME280;10218;42.874;25.320;2023-04-28T02:30:33;97456.94;;;9.03;97.71
20115;BME280;10218;42.874;25.320;2023-04-28T02:33:00;97455.63;;;9.07;100.00
20115;BME280;10218;42.874;25.320;2023-04-28T02:35:27;97456.66;;;8.88;100.00
20115;BME280;10218;42.874;25.320;2023-04-28T02:37:54;97470.81;;;8.71;100.00
20115;BME280;10218;42.874;25.320;2023-04-28T02:40:21;97464.25;;;9.01;100.00
20115;BME280;10218;42.874;25.320;2023-04-28T02:42:49;97460.12;;;8.89;100.00
20115;BME280;10218;42.874;25.320;2023-04-28T02:45:16;97470.78;;;9.07;100.00
20115;BME280;10218;42.874;25.320;2023-04-28T02:47:43;97469.25;;;9.04;100.00
20115;BME280;10218;42.874;25.320;2023-04-28T02:50:10;97466.78;;;8.67;100.00
20115;BME280;10218;42.874;25.320;2023-04-28T02:52:37;97475.31;;;8.53;100.00
20115;BME280;10218;42.874;25.320;2023-04-28T02:55:05;97475.25;;;8.63;100.00
20115;BME280;10218;42.874;25.320;2023-04-28T02:57:32;97483.22;;;8.45;100.00
20115;BME280;10218;42.874;25.320;2023-04-28T02:59:59;97481.53;;;8.79;100.00
20115;BME280;10218;42.874;25.320;2023-04-28T03:02:28;97481.38;;;8.81;100.00
20115;BME280;10218;42.874;25.320;2023-04-28T03:04:55;97485.06;;;8.62;100.00
20115;BME280;10218;42.874;25.320;2023-04-28T03:07:22;97484.38;;;8.78;100.00
20115;BME280;10218;42.874;25.320;2023-04-28T03:09:49;97500.19;;;8.79;100.00
20115;BME280;10218;42.874;25.320;2023-04-28T03:12:16;97488.84;;;8.42;100.00
20115;BME280;10218;42.874;25.320;2023-04-28T03:14:44;97501.25;;;8.51;99.24
20115;BME280;10218;42.874;25.320;2023-04-28T03:17:11;97502.63;;;8.73;100.00
20115;BME280;10218;42.874;25.320;2023-04-28T03:19:40;97496.25;;;8.83;92.82
20115;BME280;10218;42.874;25.320;2023-04-28T03:22:07;97505.88;;;8.84;96.72
20115;BME280;10218;42.874;25.320;2023-04-28T03:24:34;97506.00;;;8.30;98.89
20115;BME280;10218;42.874;25.320;2023-04-28T03:27:01;97507.50;;;8.42;99.98
20115;BME280;10218;42.874;25.320;2023-04-28T03:29:30;97510.91;;;8.25;100.00
20115;BME280;10218;42.874;25.320;2023-04-28T03:31:57;97523.69;;;8.48;100.00
20115;BME280;10218;42.874;25.320;2023-04-28T03:34:24;97516.25;;;8.70;97.05
20115;BME280;10218;42.874;25.320;2023-04-28T03:36:51;97526.84;;;8.97;94.05
20115;BME280;10218;42.874;25.320;2023-04-28T03:39:19;97515.66;;;8.58;100.00
20115;BME280;10218;42.874;25.320;2023-04-28T03:41:46;97539.03;;;8.37;100.00
20115;BME280;10218;42.874;25.320;2023-04-28T03:44:15;97542.47;;;8.20;100.00
20115;BME280;10218;42.874;25.320;2023-04-28T03:46:43;97541.28;;;8.59;97.31
20115;BME280;10218;42.874;25.320;2023-04-28T03:49:11;97555.66;;;8.66;91.64
20115;BME280;10218;42.874;25.320;2023-04-28T03:51:38;97549.75;;;8.72;88.89
20115;BME280;10218;42.874;25.320;2023-04-28T03:54:05;97560.94;;;8.48;94.93
20115;BME280;10218;42.874;25.320;2023-04-28T03:56:33;97560.09;;;8.21;94.45
20115;BME280;10218;42.874;25.320;2023-04-28T03:59:00;97562.84;;;8.29;100.00
20115;BME280;10218;42.874;25.320;2023-04-28T04:01:27;97564.84;;;8.27;100.00
20115;BME280;10218;42.874;25.320;2023-04-28T04:03:55;97565.59;;;8.91;92.01
20115;BME280;10218;42.874;25.320;2023-04-28T04:06:22;97571.06;;;9.08;100.00
20115;BME280;10218;42.874;25.320;2023-04-28T04:08:49;97572.50;;;9.02;89.36
20115;BME280;10218;42.874;25.320;2023-04-28T04:11:16;97574.56;;;8.45;95.41
20115;BME280;10218;42.874;25.320;2023-04-28T04:13:43;97577.09;;;8.47;95.52
20115;BME280;10218;42.874;25.320;2023-04-28T04:16:11;97584.91;;;8.58;96.59
20115;BME280;10218;42.874;25.320;2023-04-28T04:18:41;97576.44;;;8.80;100.00
20115;BME280;10218;42.874;25.320;2023-04-28T04:21:09;97578.28;;;9.15;89.00
20115;BME280;10218;42.874;25.320;2023-04-28T04:23:36;97586.69;;;9.02;97.61
20115;BME280;10218;42.874;25.320;2023-04-28T04:26:03;97589.78;;;9.16;95.95
20115;BME280;10218;42.874;25.320;2023-04-28T04:28:30;97590.25;;;8.93;84.63
20115;BME280;10218;42.874;25.320;2023-04-28T04:30:57;97598.09;;;9.13;85.00
20115;BME280;10218;42.874;25.320;2023-04-28T04:33:25;97599.41;;;9.09;89.79
20115;BME280;10218;42.874;25.320;2023-04-28T04:35:52;97593.91;;;9.28;80.73
20115;BME280;10218;42.874;25.320;2023-04-28T04:38:19;97598.03;;;9.22;76.86
20115;BME280;10218;42.874;25.320;2023-04-28T04:40:47;97605.19;;;9.22;83.67
20115;BME280;10218;42.874;25.320;2023-04-28T04:43:14;97599.44;;;8.99;81.33
20115;BME280;10218;42.874;25.320;2023-04-28T04:45:41;97604.19;;;9.05;90.41
20115;BME280;10218;42.874;25.320;2023-04-28T04:48:10;97609.31;;;9.34;83.95
20115;BME280;10218;42.874;25.320;2023-04-28T04:50:37;97597.25;;;9.30;88.73
20115;BME280;10218;42.874;25.320;2023-04-28T04:53:04;97611.50;;;9.21;78.72
20115;BME280;10218;42.874;25.320;2023-04-28T04:55:31;97606.16;;;9.38;83.04
20115;BME280;10218;42.874;25.320;2023-04-28T04:57:59;97615.87;;;9.65;75.39
20115;BME280;10218;42.874;25.320;2023-04-28T05:00:28;97621.06;;;9.67;81.66
20115;BME280;10218;42.874;25.320;2023-04-28T05:02:56;97615.22;;;9.89;77.15
20115;BME280;10218;42.874;25.320;2023-04-28T05:05:24;97631.22;;;9.63;80.04
20115;BME280;10218;42.874;25.320;2023-04-28T05:07:51;97624.28;;;9.53;76.56
20115;BME280;10218;42.874;25.320;2023-04-28T05:10:19;97631.09;;;9.29;77.92
20115;BME280;10218;42.874;25.320;2023-04-28T05:12:47;97629.94;;;9.50;83.79
20115;BME280;10218;42.874;25.320;2023-04-28T05:15:15;97637.53;;;9.62;76.05
20115;BME280;10218;42.874;25.320;2023-04-28T05:17:43;97640.56;;;9.67;79.69
20115;BME280;10218;42.874;25.320;2023-04-28T05:20:10;97631.34;;;9.62;75.92
20115;BME280;10218;42.874;25.320;2023-04-28T05:22:38;97634.34;;;9.59;80.25
20115;BME280;10218;42.874;25.320;2023-04-28T05:25:06;97623.06;;;9.47;77.73
20115;BME280;10218;42.874;25.320;2023-04-28T05:27:33;97640.28;;;9.53;77.31
20115;BME280;10218;42.874;25.320;2023-04-28T05:30:00;97647.47;;;9.34;77.66
20115;BME280;10218;42.874;25.320;2023-04-28T05:32:28;97645.91;;;8.96;81.19
20115;BME280;10218;42.874;25.320;2023-04-28T05:34:55;97648.16;;;9.19;81.64
20115;BME280;10218;42.874;25.320;2023-04-28T05:37:22;97645.06;;;8.96;83.31
20115;BME280;10218;42.874;25.320;2023-04-28T05:39:49;97655.97;;;9.20;75.41
20115;BME280;10218;42.874;25.320;2023-04-28T05:42:16;97645.69;;;9.43;78.21
20115;BME280;10218;42.874;25.320;2023-04-28T05:44:44;97647.06;;;9.12;86.86
20115;BME280;10218;42.874;25.320;2023-04-28T05:47:12;97653.81;;;8.88;85.30
20115;BME280;10218;42.874;25.320;2023-04-28T05:49:39;97650.53;;;9.39;88.84
20115;BME280;10218;42.874;25.320;2023-04-28T05:52:06;97661.25;;;9.48;92.64
20115;BME280;10218;42.874;25.320;2023-04-28T05:54:33;97665.47;;;9.76;85.83
20115;BME280;10218;42.874;25.320;2023-04-28T05:57:01;97666.81;;;9.54;86.86
20115;BME280;10218;42.874;25.320;2023-04-28T05:59:28;97656.38;;;9.86;85.80
20115;BME280;10218;42.874;25.320;2023-04-28T06:01:57;97667.88;;;9.08;92.67
20115;BME280;10218;42.874;25.320;2023-04-28T06:04:25;97667.88;;;9.26;85.30
20115;BME280;10218;42.874;25.320;2023-04-28T06:06:52;97671.47;;;9.34;86.22
20115;BME280;10218;42.874;25.320;2023-04-28T06:09:19;97669.69;;;9.61;82.60
20115;BME280;10218;42.874;25.320;2023-04-28T06:11:47;97666.81;;;9.98;73.63
20115;BME280;10218;42.874;25.320;2023-04-28T06:14:14;97662.09;;;9.92;75.62
20115;BME280;10218;42.874;25.320;2023-04-28T06:16:41;97670.09;;;9.48;76.65
20115;BME280;10218;42.874;25.320;2023-04-28T06:19:08;97680.12;;;9.19;75.43
20115;BME280;10218;42.874;25.320;2023-04-28T06:21:35;97678.63;;;9.34;76.09
20115;BME280;10218;42.874;25.320;2023-04-28T06:24:02;97675.38;;;9.83;74.10
20115;BME280;10218;42.874;25.320;2023-04-28T06:26:30;97680.88;;;9.82;65.99
20115;BME280;10218;42.874;25.320;2023-04-28T06:28:57;97681.38;;;9.85;67.40
20115;BME280;10218;42.874;25.320;2023-04-28T06:31:24;97679.75;;;9.67;65.03
20115;BME280;10218;42.874;25.320;2023-04-28T06:33:52;97683.13;;;9.33;66.85
20115;BME280;10218;42.874;25.320;2023-04-28T06:36:21;97683.47;;;9.21;66.67
20115;BME280;10218;42.874;25.320;2023-04-28T06:38:48;97688.44;;;9.51;69.17
20115;BME280;10218;42.874;25.320;2023-04-28T06:41:16;97686.06;;;9.66;65.48
20115;BME280;10218;42.874;25.320;2023-04-28T06:43:43;97691.25;;;9.67;68.91
20115;BME280;10218;42.874;25.320;2023-04-28T06:46:11;97691.16;;;9.77;63.28
20115;BME280;10218;42.874;25.320;2023-04-28T06:48:41;97679.38;;;9.79;61.70
20115;BME280;10218;42.874;25.320;2023-04-28T06:51:08;97696.22;;;9.44;61.52
20115;BME280;10218;42.874;25.320;2023-04-28T06:53:35;97685.16;;;8.77;59.20
20115;BME280;10218;42.874;25.320;2023-04-28T06:56:06;97681.50;;;8.78;61.08
20115;BME280;10218;42.874;25.320;2023-04-28T06:58:34;97707.63;;;9.19;58.25
20115;BME280;10218;42.874;25.320;2023-04-28T07:01:01;97703.88;;;9.30;58.94
20115;BME280;10218;42.874;25.320;2023-04-28T07:03:30;97708.56;;;9.63;57.87
20115;BME280;10218;42.874;25.320;2023-04-28T07:05:57;97703.16;;;9.73;61.14
20115;BME280;10218;42.874;25.320;2023-04-28T07:08:24;97699.81;;;9.53;61.08
20115;BME280;10218;42.874;25.320;2023-04-28T07:10:51;97706.22;;;8.97;62.46
20115;BME280;10218;42.874;25.320;2023-04-28T07:13:18;97707.19;;;9.77;59.37
20115;BME280;10218;42.874;25.320;2023-04-28T07:15:45;97704.03;;;10.43;60.36
20115;BME280;10218;42.874;25.320;2023-04-28T07:18:13;97703.66;;;9.76;57.68
20115;BME280;10218;42.874;25.320;2023-04-28T07:20:40;97703.28;;;9.71;60.27
20115;BME280;10218;42.874;25.320;2023-04-28T07:23:07;97695.38;;;9.62;60.27
20115;BME280;10218;42.874;25.320;2023-04-28T07:25:34;97703.78;;;9.49;57.80
20115;BME280;10218;42.874;25.320;2023-04-28T07:28:02;97697.41;;;9.85;56.09
20115;BME280;10218;42.874;25.320;2023-04-28T07:30:29;97695.41;;;10.57;55.43
20115;BME280;10218;42.874;25.320;2023-04-28T07:32:56;97696.41;;;10.04;55.55
20115;BME280;10218;42.874;25.320;2023-04-28T07:35:24;97693.56;;;10.23;56.33
20115;BME280;10218;42.874;25.320;2023-04-28T07:37:51;97685.09;;;10.62;58.17
20115;BME280;10218;42.874;25.320;2023-04-28T07:40:19;97698.09;;;9.87;55.88
20115;BME280;10218;42.874;25.320;2023-04-28T07:42:46;97694.78;;;10.97;54.92
20115;BME280;10218;42.874;25.320;2023-04-28T07:45:13;97691.09;;;11.72;55.46
20115;BME280;10218;42.874;25.320;2023-04-28T07:47:41;97693.91;;;10.54;54.20
20115;BME280;10218;42.874;25.320;2023-04-28T07:50:10;97685.53;;;10.23;56.31
20115;BME280;10218;42.874;25.320;2023-04-28T07:52:37;97685.09;;;10.10;55.78
20115;BME280;10218;42.874;25.320;2023-04-28T07:55:05;97693.50;;;11.17;53.66
20115;BME280;10218;42.874;25.320;2023-04-28T07:57:32;97688.59;;;10.62;52.82
20115;BME280;10218;42.874;25.320;2023-04-28T07:59:59;97685.78;;;10.64;54.35
20115;BME280;10218;42.874;25.320;2023-04-28T08:02:26;97700.13;;;10.63;53.79
20115;BME280;10218;42.874;25.320;2023-04-28T08:04:54;97684.78;;;11.07;54.24
20115;BME280;10218;42.874;25.320;2023-04-28T08:07:21;97687.69;;;10.80;54.57
20115;BME280;10218;42.874;25.320;2023-04-28T08:09:48;97687.53;;;11.39;54.01
20115;BME280;10218;42.874;25.320;2023-04-28T08:12:16;97697.59;;;11.62;53.46
20115;BME280;10218;42.874;25.320;2023-04-28T08:14:43;97689.00;;;11.34;51.15
20115;BME280;10218;42.874;25.320;2023-04-28T08:17:10;97689.03;;;10.84;51.51
20115;BME280;10218;42.874;25.320;2023-04-28T08:19:38;97676.28;;;10.36;52.84
20115;BME280;10218;42.874;25.320;2023-04-28T08:22:06;97686.78;;;10.37;52.29
20115;BME280;10218;42.874;25.320;2023-04-28T08:24:33;97686.63;;;10.64;52.86
20115;BME280;10218;42.874;25.320;2023-04-28T08:27:01;97689.25;;;10.98;52.16
20115;BME280;10218;42.874;25.320;2023-04-28T08:29:32;97682.97;;;10.40;53.11
20115;BME280;10218;42.874;25.320;2023-04-28T08:31:59;97683.16;;;11.30;53.45
20115;BME280;10218;42.874;25.320;2023-04-28T08:34:27;97674.66;;;11.27;54.72
20115;BME280;10218;42.874;25.320;2023-04-28T08:36:55;97670.72;;;11.05;53.22
20115;BME280;10218;42.874;25.320;2023-04-28T08:39:22;97679.88;;;10.86;53.32
20115;BME280;10218;42.874;25.320;2023-04-28T08:41:49;97672.91;;;11.09;53.78
20115;BME280;10218;42.874;25.320;2023-04-28T08:44:17;97669.34;;;10.93;54.03
20115;BME280;10218;42.874;25.320;2023-04-28T08:46:45;97670.72;;;10.55;54.09
20115;BME280;10218;42.874;25.320;2023-04-28T08:49:16;97670.28;;;11.34;52.35
20115;BME280;10218;42.874;25.320;2023-04-28T08:51:45;97670.47;;;11.32;53.37
20115;BME280;10218;42.874;25.320;2023-04-28T08:54:14;97673.12;;;11.24;52.37
20115;BME280;10218;42.874;25.320;2023-04-28T08:56:51;97672.81;;;11.35;53.03
20115;BME280;10218;42.874;25.320;2023-04-28T08:59:19;97667.16;;;11.71;53.51
20115;BME280;10218;42.874;25.320;2023-04-28T09:01:47;97667.38;;;12.73;51.94
20115;BME280;10218;42.874;25.320;2023-04-28T09:04:16;97659.84;;;12.60;51.20
20115;BME280;10218;42.874;25.320;2023-04-28T09:06:44;97663.91;;;12.56;50.98
20115;BME280;10218;42.874;25.320;2023-04-28T09:09:28;97661.00;;;12.66;51.56
20115;BME280;10218;42.874;25.320;2023-04-28T09:11:59;97662.47;;;11.65;50.85
20115;BME280;10218;42.874;25.320;2023-04-28T09:14:27;97664.34;;;11.96;52.46
20115;BME280;10218;42.874;25.320;2023-04-28T09:16:55;97661.72;;;11.14;54.07
20115;BME280;10218;42.874;25.320;2023-04-28T09:19:22;97651.41;;;11.27;54.91
20115;BME280;10218;42.874;25.320;2023-04-28T09:21:53;97652.09;;;11.53;54.91
20115;BME280;10218;42.874;25.320;2023-04-28T09:24:37;97647.66;;;12.58;53.85
20115;BME280;10218;42.874;25.320;2023-04-28T09:27:09;97640.59;;;11.85;55.94
20115;BME280;10218;42.874;25.320;2023-04-28T09:29:37;97642.09;;;12.67;54.24
20115;BME280;10218;42.874;25.320;2023-04-28T09:32:15;97640.91;;;13.01;53.38
20115;BME280;10218;42.874;25.320;2023-04-28T09:34:52;97618.28;;;13.57;50.92
20115;BME280;10218;42.874;25.320;2023-04-28T09:37:21;97639.88;;;12.79;51.09
20115;BME280;10218;42.874;25.320;2023-04-28T09:39:50;97636.06;;;12.02;53.42
20115;BME280;10218;42.874;25.320;2023-04-28T09:45:05;97625.00;;;14.28;49.68
20115;BME280;10218;42.874;25.320;2023-04-28T09:47:35;97626.69;;;15.02;48.31
20115;BME280;10218;42.874;25.320;2023-04-28T09:50:04;97622.28;;;15.94;48.15
20115;BME280;10218;42.874;25.320;2023-04-28T09:52:33;97615.00;;;15.67;45.91
20115;BME280;10218;42.874;25.320;2023-04-28T09:55:05;97599.50;;;15.97;49.61
20115;BME280;10218;42.874;25.320;2023-04-28T09:57:35;97601.63;;;16.63;46.12
20115;BME280;10218;42.874;25.320;2023-04-28T10:00:04;97597.44;;;15.99;46.37
20115;BME280;10218;42.874;25.320;2023-04-28T10:02:36;97588.78;;;16.03;47.56
20115;BME280;10218;42.874;25.320;2023-04-28T10:05:07;97595.09;;;15.89;46.04
20115;BME280;10218;42.874;25.320;2023-04-28T10:07:36;97587.28;;;15.52;48.34
20115;BME280;10218;42.874;25.320;2023-04-28T10:10:06;97585.97;;;15.48;47.33
20115;BME280;10218;42.874;25.320;2023-04-28T10:12:33;97579.88;;;15.54;46.63
20115;BME280;10218;42.874;25.320;2023-04-28T10:15:01;97581.81;;;15.66;47.28
20115;BME280;10218;42.874;25.320;2023-04-28T10:17:28;97569.34;;;15.44;46.69
20115;BME280;10218;42.874;25.320;2023-04-28T10:19:55;97582.53;;;14.46;49.17
20115;BME280;10218;42.874;25.320;2023-04-28T10:27:43;97563.84;;;15.95;45.71
20115;BME280;10218;42.874;25.320;2023-04-28T10:30:18;97565.31;;;17.20;46.41
20115;BME280;10218;42.874;25.320;2023-04-28T10:35:44;97554.78;;;18.04;42.76
20115;BME280;10218;42.874;25.320;2023-04-28T10:38:15;97554.09;;;17.23;45.05
20115;BME280;10218;42.874;25.320;2023-04-28T10:40:43;97544.31;;;19.05;43.04
20115;BME280;10218;42.874;25.320;2023-04-28T10:43:12;97546.53;;;18.83;40.83
20115;BME280;10218;42.874;25.320;2023-04-28T10:56:20;97533.63;;;16.75;44.17
20115;BME280;10218;42.874;25.320;2023-04-28T10:58:49;97531.09;;;18.06;44.78
20115;BME280;10218;42.874;25.320;2023-04-28T11:08:56;97522.06;;;16.12;45.17
20115;BME280;10218;42.874;25.320;2023-04-28T11:11:30;97520.88;;;17.16;44.78
20115;BME280;10218;42.874;25.320;2023-04-28T11:19:28;97532.06;;;15.20;47.37
20115;BME280;10218;42.874;25.320;2023-04-28T11:21:58;97519.94;;;15.09;48.23
20115;BME280;10218;42.874;25.320;2023-04-28T11:24:27;97512.44;;;15.47;47.54
20115;BME280;10218;42.874;25.320;2023-04-28T11:26:58;97515.75;;;15.70;47.67
20115;BME280;10218;42.874;25.320;2023-04-28T11:32:05;97520.50;;;16.65;46.69
20115;BME280;10218;42.874;25.320;2023-04-28T11:34:33;97495.28;;;15.27;46.49
20115;BME280;10218;42.874;25.320;2023-04-28T11:37:01;97491.84;;;15.54;48.37
20115;BME280;10218;42.874;25.320;2023-04-28T11:39:32;97507.59;;;17.21;45.98
20115;BME280;10218;42.874;25.320;2023-04-28T11:42:01;97504.19;;;16.86;45.07
20115;BME280;10218;42.874;25.320;2023-04-28T11:44:34;97510.63;;;16.44;44.88
20115;BME280;10218;42.874;25.320;2023-04-28T11:47:03;97508.56;;;16.46;46.06
20115;BME280;10218;42.874;25.320;2023-04-28T11:49:44;97497.81;;;17.33;44.09
20115;BME280;10218;42.874;25.320;2023-04-28T11:52:12;97499.13;;;18.61;41.82
20115;BME280;10218;42.874;25.320;2023-04-28T11:54:40;97491.69;;;18.94;40.29
20115;BME280;10218;42.874;25.320;2023-04-28T11:57:18;97501.56;;;18.18;41.62
20115;BME280;10218;42.874;25.320;2023-04-28T11:59:45;97462.91;;;17.58;41.23
20115;BME280;10218;42.874;25.320;2023-04-28T12:02:13;97484.78;;;17.70;43.95
20115;BME280;10218;42.874;25.320;2023-04-28T12:04:41;97476.91;;;18.90;42.25
20115;BME280;10218;42.874;25.320;2023-04-28T12:07:10;97476.75;;;18.27;43.65
20115;BME280;10218;42.874;25.320;2023-04-28T12:09:48;97472.69;;;17.39;43.60
20115;BME280;10218;42.874;25.320;2023-04-28T12:12:27;97469.41;;;17.77;41.77
20115;BME280;10218;42.874;25.320;2023-04-28T12:15:02;97466.44;;;15.98;45.63
20115;BME280;10218;42.874;25.320;2023-04-28T12:17:37;97461.50;;;16.55;45.10
20115;BME280;10218;42.874;25.320;2023-04-28T12:20:06;97462.47;;;16.41;46.47
20115;BME280;10218;42.874;25.320;2023-04-28T12:22:47;97456.25;;;16.41;44.53
20115;BME280;10218;42.874;25.320;2023-04-28T12:25:17;97460.78;;;15.93;46.10
20115;BME280;10218;42.874;25.320;2023-04-28T12:28:04;97449.97;;;15.52;46.54
20115;BME280;10218;42.874;25.320;2023-04-28T12:30:34;97443.75;;;15.51;49.29
20115;BME280;10218;42.874;25.320;2023-04-28T12:33:04;97449.00;;;15.38;49.95
20115;BME280;10218;42.874;25.320;2023-04-28T12:35:31;97450.06;;;14.94;47.47
20115;BME280;10218;42.874;25.320;2023-04-28T12:37:59;97427.06;;;14.92;48.16
20115;BME280;10218;42.874;25.320;2023-04-28T12:40:26;97434.13;;;15.42;47.41
20115;BME280;10218;42.874;25.320;2023-04-28T12:42:53;97436.31;;;17.81;44.05
20115;BME280;10218;42.874;25.320;2023-04-28T12:45:20;97428.28;;;16.48;45.59
20115;BME280;10218;42.874;25.320;2023-04-28T12:47:48;97424.06;;;16.80;44.77
20115;BME280;10218;42.874;25.320;2023-04-28T12:50:15;97420.44;;;15.99;45.82
20115;BME280;10218;42.874;25.320;2023-04-28T12:52:42;97430.88;;;16.22;44.86
20115;BME280;10218;42.874;25.320;2023-04-28T12:55:09;97421.84;;;16.43;45.32
20115;BME280;10218;42.874;25.320;2023-04-28T12:57:36;97427.97;;;16.17;45.45
20115;BME280;10218;42.874;25.320;2023-04-28T13:00:06;97422.44;;;15.28;46.71
20115;BME280;10218;42.874;25.320;2023-04-28T13:02:33;97422.19;;;15.02;47.51
20115;BME280;10218;42.874;25.320;2023-04-28T13:05:00;97412.94;;;15.60;47.29
20115;BME280;10218;42.874;25.320;2023-04-28T13:07:27;97417.37;;;16.70;45.52
20115;BME280;10218;42.874;25.320;2023-04-28T13:09:56;97419.06;;;16.71;44.24
20115;BME280;10218;42.874;25.320;2023-04-28T13:12:23;97417.59;;;16.75;45.02
20115;BME280;10218;42.874;25.320;2023-04-28T13:14:50;97395.56;;;16.04;46.06
20115;BME280;10218;42.874;25.320;2023-04-28T13:17:18;97407.34;;;15.62;49.21
20115;BME280;10218;42.874;25.320;2023-04-28T13:19:45;97407.13;;;15.35;48.48
20115;BME280;10218;42.874;25.320;2023-04-28T13:22:12;97401.19;;;15.12;47.78
20115;BME280;10218;42.874;25.320;2023-04-28T13:24:40;97406.44;;;15.82;47.04
20115;BME280;10218;42.874;25.320;2023-04-28T13:27:07;97406.00;;;16.20;48.40
20115;BME280;10218;42.874;25.320;2023-04-28T13:29:35;97412.06;;;15.53;47.81
20115;BME280;10218;42.874;25.320;2023-04-28T13:32:03;97401.09;;;15.96;47.87
20115;BME280;10218;42.874;25.320;2023-04-28T13:34:31;97398.59;;;15.53;48.22